Time;durP1;ratioP1;P1;durP2;ratioP2;P2;SDS_P1;SDS_P2;PMS_P1;PMS_P2;Temp;Humidity;BMP_temperature;BMP_pressure;BME280_temperature;BME280_humidity;BME280_pressure;Samples;Min_cycle;Max_cycle;Signal;HPM_P1;HPM_P2
2023/12/16 00:02:43;;;;;;;14.75;7.47;;;;;;;3.03;80.41;100775.06;5014345;28;20059;-76
2023/12/16 00:05:28;;;;;;;13.65;6.18;;;;;;;3.11;80.60;100793.56;5014516;28;20492;-76
2023/12/16 00:08:14;;;;;;;16.05;9.70;;;;;;;3.03;80.67;100789.00;5014912;28;20484;-77
2023/12/16 00:11:00;;;;;;;16.95;7.90;;;;;;;2.96;80.93;100787.94;5013230;28;20049;-75
2023/12/16 00:13:45;;;;;;;18.58;10.93;;;;;;;2.92;80.14;100783.94;5015066;28;20476;-75
2023/12/16 00:16:30;;;;;;;12.07;8.15;;;;;;;2.86;79.69;100787.13;5013330;28;20073;-77
2023/12/16 00:19:15;;;;;;;17.55;9.10;;;;;;;2.91;80.01;100796.22;5019658;28;20408;-78
2023/12/16 00:22:01;;;;;;;11.95;6.25;;;;;;;2.83;80.16;100792.66;5014028;28;20068;-77
2023/12/16 00:24:46;;;;;;;11.82;7.70;;;;;;;2.92;80.43;100816.28;5014416;28;20393;-77
2023/12/16 00:27:31;;;;;;;13.30;7.75;;;;;;;2.88;80.00;100814.06;5013413;28;20377;-77
2023/12/16 00:30:17;;;;;;;11.77;6.60;;;;;;;2.82;80.06;100825.13;5014266;28;20044;-79
2023/12/16 00:33:02;;;;;;;12.98;8.00;;;;;;;2.74;78.87;100826.66;5013751;28;20068;-77
2023/12/16 00:35:48;;;;;;;20.10;7.85;;;;;;;2.77;79.45;100831.63;5014731;28;20397;-78
2023/12/16 00:38:33;;;;;;;6.65;5.05;;;;;;;2.79;78.83;100834.13;5005790;28;20405;-77
2023/12/16 00:41:19;;;;;;;15.15;8.23;;;;;;;2.66;79.20;100816.00;5033488;28;20044;-78
2023/12/16 00:44:04;;;;;;;16.17;9.32;;;;;;;2.75;79.23;100843.22;5013884;28;20056;-77
2023/12/16 00:46:50;;;;;;;14.48;8.75;;;;;;;2.74;79.17;100842.41;5013700;28;20049;-78
2023/12/16 00:49:36;;;;;;;13.40;8.50;;;;;;;2.69;78.86;100846.41;5013888;28;20068;-77
2023/12/16 00:52:22;;;;;;;13.80;7.35;;;;;;;2.70;78.47;100848.91;5014149;28;20476;-77
2023/12/16 00:55:08;;;;;;;8.82;6.45;;;;;;;2.67;78.17;100851.81;5020666;28;20072;-78
2023/12/16 00:57:54;;;;;;;8.45;5.88;;;;;;;2.66;78.49;100865.88;5013337;28;20052;-76
2023/12/16 01:00:39;;;;;;;12.45;8.10;;;;;;;2.56;79.07;100849.31;5013614;28;20061;-78
2023/12/16 01:03:24;;;;;;;13.35;8.95;;;;;;;2.59;78.83;100863.97;5033603;28;20060;-77
2023/12/16 01:06:09;;;;;;;13.20;7.63;;;;;;;2.48;78.69;100849.19;5014229;28;20163;-76
2023/12/16 01:08:55;;;;;;;13.82;8.55;;;;;;;2.54;78.00;100869.66;5013615;28;20065;-78
2023/12/16 01:11:41;;;;;;;9.13;5.82;;;;;;;2.50;78.54;100876.09;5012978;28;20420;-77
2023/12/16 01:14:26;;;;;;;8.57;5.28;;;;;;;2.52;78.56;100874.19;5013741;28;20511;-78
2023/12/16 01:17:12;;;;;;;10.50;6.22;;;;;;;2.50;78.38;100869.06;5013784;28;20056;-79
2023/12/16 01:19:58;;;;;;;10.82;6.22;;;;;;;2.50;78.19;100881.34;5012458;28;20052;-77
2023/12/16 01:22:44;;;;;;;10.65;7.00;;;;;;;2.49;78.42;100891.03;5013166;28;20400;-77
2023/12/16 01:25:29;;;;;;;12.43;7.93;;;;;;;2.49;78.10;100884.97;5012249;28;20068;-75
2023/12/16 01:28:15;;;;;;;11.95;7.55;;;;;;;2.46;77.50;100885.22;5013414;28;20389;-77
2023/12/16 01:31:00;;;;;;;9.63;5.10;;;;;;;2.47;77.77;100892.13;5013222;28;20119;-76
2023/12/16 01:33:46;;;;;;;10.43;6.35;;;;;;;2.43;77.88;100888.94;5018733;28;20072;-77
2023/12/16 01:36:32;;;;;;;9.98;6.70;;;;;;;2.46;77.49;100890.47;5031859;28;20404;-76
2023/12/16 01:39:17;;;;;;;9.98;6.43;;;;;;;2.39;77.64;100887.56;5032430;28;20056;-78
2023/12/16 01:42:03;;;;;;;10.38;6.75;;;;;;;2.33;77.28;100877.63;5013354;28;20472;-77
2023/12/16 01:44:48;;;;;;;7.65;5.20;;;;;;;2.40;76.90;100891.03;5013524;28;20369;-78
2023/12/16 01:47:34;;;;;;;11.68;6.93;;;;;;;2.39;77.27;100890.19;5013682;28;20056;-76
2023/12/16 01:50:19;;;;;;;9.98;5.85;;;;;;;2.33;76.32;100888.13;5011852;28;20064;-76
2023/12/16 01:53:05;;;;;;;4.75;3.80;;;;;;;2.35;76.69;100895.84;5012812;28;20060;-77
2023/12/16 01:55:51;;;;;;;7.18;5.38;;;;;;;2.34;76.02;100896.81;5010845;28;20420;-76
2023/12/16 01:58:37;;;;;;;7.93;4.90;;;;;;;2.30;76.30;100904.94;5012789;28;20139;-77
2023/12/16 02:01:23;;;;;;;9.27;5.13;;;;;;;2.27;76.53;100907.84;5010951;28;20056;-77
2023/12/16 02:04:09;;;;;;;12.60;7.75;;;;;;;2.31;76.73;100908.41;5012689;28;20052;-79
2023/12/16 02:06:55;;;;;;;9.43;5.25;;;;;;;2.25;76.31;100912.38;5017323;28;20491;-78
2023/12/16 02:09:39;;;;;;;7.00;4.60;;;;;;;2.17;76.00;100914.88;5015913;28;20377;-78
2023/12/16 02:12:32;;;;;;;10.45;6.55;;;;;;;2.26;76.74;100926.34;5035738;28;20040;-77
2023/12/16 02:15:18;;;;;;;7.25;5.18;;;;;;;2.21;76.49;100924.13;5031217;28;20392;-77
2023/12/16 02:18:04;;;;;;;8.55;4.93;;;;;;;2.18;76.04;100920.94;5038088;28;20419;-77
2023/12/16 02:20:49;;;;;;;6.85;4.57;;;;;;;2.16;76.13;100914.97;5031848;28;20052;-78
2023/12/16 02:23:37;;;;;;;5.47;4.20;;;;;;;2.16;75.96;100939.41;5017308;28;20365;-78
2023/12/16 02:26:23;;;;;;;310.10;147.20;;;;;;;2.14;76.09;100930.03;5031221;28;20064;-79
2023/12/16 02:29:09;;;;;;;486.60;264.02;;;;;;;2.17;76.52;100948.13;5031743;28;20045;-79
2023/12/16 02:31:54;;;;;;;200.02;104.80;;;;;;;2.19;76.37;100954.06;5031179;28;20045;-77
2023/12/16 02:34:40;;;;;;;34.45;17.67;;;;;;;2.09;76.02;100936.50;5025963;28;20395;-77
2023/12/16 02:37:25;;;;;;;32.97;18.55;;;;;;;2.07;75.29;100948.94;5038670;28;20381;-76
2023/12/16 02:40:11;;;;;;;226.75;143.35;;;;;;;2.08;75.37;100957.63;5032077;28;20048;-77
2023/12/16 02:42:56;;;;;;;156.93;96.53;;;;;;;2.08;75.45;100970.75;5037396;28;20463;-77
2023/12/16 02:45:42;;;;;;;12.00;7.70;;;;;;;2.09;75.38;100969.78;5031014;28;20044;-76
2023/12/16 02:48:28;;;;;;;11.73;7.15;;;;;;;2.07;76.00;100966.47;5031321;28;20368;-77
2023/12/16 02:51:20;;;;;;;10.77;4.97;;;;;;;2.04;74.63;100975.44;5038825;28;20071;-76
2023/12/16 02:54:06;;;;;;;5.97;4.35;;;;;;;2.04;74.44;100979.84;5029915;28;20392;-77
2023/12/16 02:56:52;;;;;;;9.18;5.50;;;;;;;2.01;75.20;100983.56;5029945;28;20388;-77
2023/12/16 02:59:37;;;;;;;7.95;4.88;;;;;;;1.87;75.13;100968.16;5031021;28;20487;-77
2023/12/16 03:02:23;;;;;;;22.80;12.80;;;;;;;1.97;74.85;100984.75;5031607;28;20052;-77
2023/12/16 03:05:08;;;;;;;8.43;5.60;;;;;;;1.88;75.21;100977.69;5031197;28;20048;-77
2023/12/16 03:07:54;;;;;;;13.52;8.25;;;;;;;1.91;75.49;100997.56;5033279;28;20214;-77
2023/12/16 03:10:39;;;;;;;11.05;6.38;;;;;;;1.89;74.83;101002.13;5035036;28;20052;-76
2023/12/16 03:13:24;;;;;;;9.15;6.30;;;;;;;1.92;74.50;101004.47;5035466;28;20067;-78
2023/12/16 03:16:10;;;;;;;5.03;3.60;;;;;;;1.89;74.24;101008.19;5036448;28;20072;-78
2023/12/16 03:18:55;;;;;;;8.80;6.13;;;;;;;1.87;74.62;101006.66;5034406;28;20057;-76
2023/12/16 03:21:41;;;;;;;6.15;4.03;;;;;;;1.79;74.59;100999.44;5034859;28;20427;-77
2023/12/16 03:24:26;;;;;;;4.55;2.92;;;;;;;1.84;73.67;101026.09;5035488;28;20068;-77
2023/12/16 03:27:12;;;;;;;7.55;4.70;;;;;;;1.77;75.00;101010.06;5035644;28;20056;-77
2023/12/16 03:29:57;;;;;;;6.80;3.55;;;;;;;1.83;73.14;101024.44;5035354;28;20048;-77
2023/12/16 03:32:43;;;;;;;7.38;3.85;;;;;;;1.80;73.15;101032.56;5035901;28;20060;-77
2023/12/16 03:35:29;;;;;;;5.80;3.33;;;;;;;1.78;73.19;101030.06;5035095;28;20484;-77
2023/12/16 03:38:14;;;;;;;6.32;3.53;;;;;;;1.77;73.24;101040.69;5034769;28;20147;-77
2023/12/16 03:41:00;;;;;;;7.40;4.00;;;;;;;1.75;73.32;101038.16;5034633;28;20072;-76
2023/12/16 03:43:45;;;;;;;7.20;3.75;;;;;;;1.72;73.01;101037.59;5033885;28;20112;-78
2023/12/16 03:46:30;;;;;;;5.97;4.05;;;;;;;1.73;73.47;101055.00;5034813;28;20487;-77
2023/12/16 03:49:15;;;;;;;6.75;4.30;;;;;;;1.67;73.06;101063.38;5033098;28;20063;-79
2023/12/16 03:52:00;;;;;;;5.95;3.58;;;;;;;1.48;72.42;101048.34;5035162;28;20064;-77
2023/12/16 03:54:46;;;;;;;7.68;5.13;;;;;;;1.55;72.81;101063.44;5035358;28;20060;-77
2023/12/16 03:57:33;;;;;;;5.15;3.63;;;;;;;1.45;72.76;101056.47;5034419;28;20400;-76
2023/12/16 04:00:19;;;;;;;7.25;3.47;;;;;;;1.40;73.18;101064.69;5034383;28;20071;-76
2023/12/16 04:03:05;;;;;;;5.30;3.55;;;;;;;1.43;72.79;101074.09;5040374;28;20052;-76
2023/12/16 04:05:50;;;;;;;4.03;2.78;;;;;;;1.39;72.84;101076.13;5040442;28;20055;-77
2023/12/16 04:08:36;;;;;;;4.50;2.95;;;;;;;1.38;73.08;101088.41;5034749;28;20064;-77
2023/12/16 04:11:21;;;;;;;3.78;2.83;;;;;;;1.30;72.83;101090.78;5040337;28;20475;-77
2023/12/16 04:14:07;;;;;;;4.97;3.88;;;;;;;1.34;73.68;101096.63;5034095;28;20372;-77
2023/12/16 04:16:53;;;;;;;5.38;3.53;;;;;;;1.23;73.56;101100.09;5034154;28;20079;-78
2023/12/16 04:19:38;;;;;;;4.40;2.92;;;;;;;1.21;73.74;101109.88;5034154;28;20052;-77
2023/12/16 04:22:24;;;;;;;4.47;2.95;;;;;;;1.19;73.94;101119.63;5034555;28;20052;-76
2023/12/16 04:25:10;;;;;;;6.43;4.30;;;;;;;1.21;72.85;101125.56;5034733;28;20068;-78
2023/12/16 04:27:56;;;;;;;3.42;3.05;;;;;;;1.14;72.79;101106.91;5034194;28;20479;-78
2023/12/16 04:30:41;;;;;;;8.25;4.38;;;;;;;1.13;74.15;101114.91;5034375;28;20048;-77
2023/12/16 04:33:27;;;;;;;7.35;3.90;;;;;;;1.17;74.00;101128.59;5034335;28;20072;-77
2023/12/16 04:36:14;;;;;;;8.88;4.47;;;;;;;1.10;73.51;101121.22;5034130;28;20478;-78
2023/12/16 04:39:00;;;;;;;4.53;3.25;;;;;;;1.09;72.94;101129.16;5033934;28;20052;-76
2023/12/16 04:41:45;;;;;;;6.28;3.13;;;;;;;1.13;72.83;101141.09;5033840;28;20052;-77
2023/12/16 04:44:30;;;;;;;3.47;2.80;;;;;;;1.09;73.25;101135.25;5034188;28;20108;-78
2023/12/16 04:47:16;;;;;;;6.38;2.72;;;;;;;1.09;71.85;101137.84;5033674;28;20056;-77
2023/12/16 04:50:03;;;;;;;8.13;5.18;;;;;;;1.12;73.39;101148.09;5034449;28;20060;-77
2023/12/16 04:52:48;;;;;;;4.03;3.15;;;;;;;1.09;72.97;101152.75;5033590;28;20376;-76
2023/12/16 04:55:34;;;;;;;7.80;4.60;;;;;;;1.03;72.52;101155.84;5033720;28;20400;-77
2023/12/16 04:58:19;;;;;;;4.65;3.47;;;;;;;1.11;71.98;101169.19;5033790;28;20491;-77
2023/12/16 05:01:05;;;;;;;8.85;4.50;;;;;;;1.01;72.68;101155.16;5033953;28;20076;-77
2023/12/16 05:03:51;;;;;;;5.43;3.67;;;;;;;1.06;72.22;101173.94;5033805;28;20396;-77
2023/12/16 05:06:36;;;;;;;5.78;3.70;;;;;;;1.01;71.40;101178.72;5033575;28;20483;-78
2023/12/16 05:09:21;;;;;;;4.53;2.95;;;;;;;0.98;71.10;101176.34;5033654;28;20048;-76
2023/12/16 05:12:07;;;;;;;3.85;2.60;;;;;;;0.87;71.38;101170.13;5033122;28;20056;-77
2023/12/16 05:14:52;;;;;;;6.00;4.03;;;;;;;0.89;72.48;101181.31;5033265;28;20404;-78
2023/12/16 05:17:37;;;;;;;6.75;3.53;;;;;;;0.86;71.93;101199.06;5033781;28;20076;-76
2023/12/16 05:20:23;;;;;;;7.32;3.70;;;;;;;0.77;71.96;101189.28;5033197;28;20060;-77
2023/12/16 05:23:08;;;;;;;7.30;4.47;;;;;;;0.72;73.74;101199.28;5039323;28;20051;-77
2023/12/16 05:25:54;;;;;;;5.22;3.75;;;;;;;0.69;75.38;101202.97;5017221;28;20373;-77
2023/12/16 05:28:39;;;;;;;7.05;3.75;;;;;;;0.65;75.15;101206.75;5033673;28;20064;-77
2023/12/16 05:31:24;;;;;;;5.22;3.45;;;;;;;0.50;75.25;101192.22;5032015;28;20404;-76
2023/12/16 05:34:10;;;;;;;6.43;4.00;;;;;;;0.56;74.65;101207.47;5031734;28;20064;-77
2023/12/16 05:36:56;;;;;;;7.35;3.92;;;;;;;0.56;75.72;101210.91;5033682;28;20052;-78
2023/12/16 05:39:41;;;;;;;5.93;4.05;;;;;;;0.55;75.04;101219.72;5038680;28;20060;-78
2023/12/16 05:42:26;;;;;;;12.05;5.15;;;;;;;0.60;74.30;101219.38;5031657;28;20376;-76
2023/12/16 05:45:13;;;;;;;5.50;2.85;;;;;;;0.59;72.72;101218.53;5032576;28;20044;-76
2023/12/16 05:47:58;;;;;;;2.97;2.60;;;;;;;0.66;73.29;101238.06;5029380;28;20384;-77
2023/12/16 05:50:43;;;;;;;11.52;5.70;;;;;;;0.66;73.03;101224.97;5032363;28;20056;-77
2023/12/16 05:53:29;;;;;;;7.28;4.53;;;;;;;0.68;73.45;101232.69;5031679;28;20388;-76
2023/12/16 05:56:14;;;;;;;4.63;3.45;;;;;;;0.51;74.57;101222.69;5032990;28;20057;-76
2023/12/16 05:58:59;;;;;;;6.03;4.28;;;;;;;0.49;74.02;101225.41;5032550;28;20044;-78
2023/12/16 06:01:45;;;;;;;7.80;4.63;;;;;;;0.54;74.79;101230.31;5031620;28;20071;-77
2023/12/16 06:04:30;;;;;;;8.02;4.53;;;;;;;0.38;74.98;101231.47;5032875;28;20484;-77
2023/12/16 06:07:16;;;;;;;8.95;6.20;;;;;;;0.41;75.82;101239.06;5032103;28;20056;-77
2023/12/16 06:10:02;;;;;;;6.63;4.18;;;;;;;0.44;75.90;101248.47;5032490;28;20068;-77
2023/12/16 06:12:47;;;;;;;18.23;14.20;;;;;;;0.45;76.90;101255.38;5032721;28;20404;-77
2023/12/16 06:15:33;;;;;;;13.57;8.82;;;;;;;0.47;77.38;101258.72;5032127;28;20044;-76
2023/12/16 06:18:18;;;;;;;7.47;5.18;;;;;;;0.40;76.79;101252.25;5032286;28;20072;-78
2023/12/16 06:21:05;;;;;;;13.23;8.13;;;;;;;0.45;76.62;101261.44;5032395;28;20480;-77
2023/12/16 06:23:50;;;;;;;14.65;8.98;;;;;;;0.44;76.38;101265.00;5032148;28;20384;-78
2023/12/16 06:26:36;;;;;;;16.17;9.23;;;;;;;0.45;76.00;101258.00;5031605;28;20493;-76
2023/12/16 06:29:21;;;;;;;11.25;7.63;;;;;;;0.53;75.57;101262.63;5030510;28;20056;-76
2023/12/16 06:32:07;;;;;;;8.00;4.90;;;;;;;0.49;75.65;101274.28;5028324;28;20400;-79
2023/12/16 06:34:53;;;;;;;10.05;7.18;;;;;;;0.44;75.58;101259.78;5039264;28;20064;-77
2023/12/16 06:37:38;;;;;;;13.45;8.52;;;;;;;0.50;76.56;101257.63;5012701;28;20052;-77
2023/12/16 06:40:24;;;;;;;20.98;12.00;;;;;;;0.54;75.53;101273.00;5012248;28;20061;-75
2023/12/16 06:43:10;;;;;;;12.57;6.88;;;;;;;0.57;74.96;101287.66;5020199;28;20068;-77
2023/12/16 06:45:55;;;;;;;15.65;9.43;;;;;;;0.58;75.37;101287.50;5018352;28;20171;-78
2023/12/16 06:48:40;;;;;;;31.25;18.25;;;;;;;0.59;76.14;101289.16;5007781;28;20396;-77
2023/12/16 06:51:25;;;;;;;13.68;9.48;;;;;;;0.56;76.55;101291.19;5036150;28;20410;-78
2023/12/16 06:54:11;;;;;;;17.52;10.38;;;;;;;0.60;75.92;101295.25;5033952;28;20483;-77
2023/12/16 06:56:57;;;;;;;19.85;9.35;;;;;;;0.57;76.32;101291.09;5034527;28;20369;-77
2023/12/16 06:59:42;;;;;;;21.27;11.70;;;;;;;0.54;75.46;101299.16;5035140;28;20068;-77
2023/12/16 07:02:27;;;;;;;17.60;9.57;;;;;;;0.53;76.02;101299.25;5032748;28;20491;-77
2023/12/16 07:05:13;;;;;;;11.43;7.53;;;;;;;0.60;75.49;101311.78;5034604;28;20052;-77
2023/12/16 07:07:59;;;;;;;11.40;7.47;;;;;;;0.57;75.20;101311.19;5041253;28;20404;-76
2023/12/16 07:10:44;;;;;;;8.48;5.32;;;;;;;0.64;75.33;101333.31;5036118;28;20475;-78
2023/12/16 07:13:30;;;;;;;13.68;8.18;;;;;;;0.60;76.10;101329.28;5035892;28;20048;-76
2023/12/16 07:16:16;;;;;;;13.57;8.43;;;;;;;0.69;75.23;101333.84;5041986;28;20407;-76
2023/12/16 07:19:01;;;;;;;15.52;7.88;;;;;;;0.54;75.27;101327.13;5028328;28;20110;-76
2023/12/16 07:21:47;;;;;;;17.63;8.18;;;;;;;0.52;75.76;101327.22;5015083;28;20064;-77
2023/12/16 07:24:32;;;;;;;12.27;7.28;;;;;;;0.60;75.87;101342.38;5024657;28;20423;-76
2023/12/16 07:27:18;;;;;;;16.67;11.05;;;;;;;0.59;75.97;101341.50;5035848;28;20072;-77
2023/12/16 07:30:04;;;;;;;16.92;9.95;;;;;;;0.60;75.43;101339.75;5037827;28;20384;-78
2023/12/16 07:32:50;;;;;;;13.18;8.73;;;;;;;0.61;76.93;101351.88;5035629;28;20462;-76
2023/12/16 07:35:38;;;;;;;14.55;9.68;;;;;;;0.70;77.02;101353.81;5026976;28;20480;-76
2023/12/16 07:38:23;;;;;;;18.50;9.77;;;;;;;0.57;76.94;101347.81;5034726;28;20052;-79
2023/12/16 07:41:09;;;;;;;17.25;10.98;;;;;;;0.65;77.30;101355.94;5030561;28;20064;-77
2023/12/16 07:43:54;;;;;;;15.10;9.75;;;;;;;0.65;76.44;101372.44;5044155;28;20373;-78
2023/12/16 07:46:40;;;;;;;9.48;6.38;;;;;;;0.69;75.95;101371.31;5022848;28;20052;-77
2023/12/16 07:49:26;;;;;;;17.08;9.63;;;;;;;0.64;75.77;101369.97;5015230;28;20060;-76
2023/12/16 07:52:11;;;;;;;16.30;10.07;;;;;;;0.55;76.40;101355.78;5021361;28;20056;-76
2023/12/16 07:54:57;;;;;;;10.65;6.70;;;;;;;0.59;75.06;101372.91;5014520;28;20049;-77
2023/12/16 07:57:42;;;;;;;22.58;12.65;;;;;;;0.62;75.76;101362.22;5033465;28;20071;-76
2023/12/16 08:00:27;;;;;;;12.55;7.85;;;;;;;0.61;76.28;101360.56;5039346;28;20051;-77
2023/12/16 08:03:14;;;;;;;21.80;11.00;;;;;;;0.58;75.81;101352.09;5034136;28;20479;-77
2023/12/16 08:05:59;;;;;;;12.32;7.05;;;;;;;0.65;75.16;101361.16;5041040;28;20048;-78
2023/12/16 08:08:46;;;;;;;16.63;9.73;;;;;;;0.59;75.68;101353.75;5033933;28;20067;-77
2023/12/16 08:11:33;;;;;;;22.60;12.65;;;;;;;0.64;76.45;101354.25;5041214;28;20075;-76
2023/12/16 08:14:19;;;;;;;13.43;7.70;;;;;;;0.64;76.23;101362.94;5033830;28;20071;-77
2023/12/16 08:17:05;;;;;;;18.10;10.27;;;;;;;0.71;76.00;101357.25;5034480;28;20068;-78
2023/12/16 08:19:51;;;;;;;23.25;12.93;;;;;;;0.79;75.57;101368.00;5041020;28;20055;-77
2023/12/16 08:22:36;;;;;;;18.67;11.68;;;;;;;0.85;76.32;101363.16;5033744;28;20076;-77
2023/12/16 08:25:22;;;;;;;18.85;11.88;;;;;;;0.89;75.55;101356.72;5040488;28;20571;-78
2023/12/16 08:28:08;;;;;;;19.77;11.73;;;;;;;0.91;75.99;101375.78;5040714;28;20396;-75
2023/12/16 08:30:53;;;;;;;71.38;22.83;;;;;;;0.76;74.92;101355.97;5034029;28;20420;-76
2023/12/16 08:33:39;;;;;;;44.72;19.70;;;;;;;0.90;75.18;101373.25;5033919;28;20068;-77
2023/12/16 08:36:24;;;;;;;20.85;11.52;;;;;;;0.95;74.73;101376.38;5033914;28;20476;-78
2023/12/16 08:39:09;;;;;;;28.10;16.45;;;;;;;0.97;75.20;101377.09;5033679;28;20040;-76
2023/12/16 08:41:55;;;;;;;41.15;23.40;;;;;;;0.91;75.50;101374.94;5032865;28;20072;-76
2023/12/16 08:44:40;;;;;;;40.22;24.65;;;;;;;0.99;76.20;101377.81;5017313;28;20456;-76
2023/12/16 08:47:26;;;;;;;24.98;15.23;;;;;;;0.97;75.60;101364.00;5033815;28;20056;-76
2023/12/16 08:50:11;;;;;;;13.80;8.05;;;;;;;1.00;74.30;101382.09;5022509;28;20052;-78
2023/12/16 08:52:56;;;;;;;20.48;12.63;;;;;;;0.91;74.30;101367.94;5035958;28;20072;-77
2023/12/16 08:55:42;;;;;;;11.43;7.30;;;;;;;1.03;73.65;101370.56;5013644;28;20074;-77
2023/12/16 08:58:27;;;;;;;16.42;10.38;;;;;;;1.01;73.95;101383.78;5011843;28;20069;-76
2023/12/16 09:01:13;;;;;;;12.60;6.70;;;;;;;1.03;73.69;101384.47;5013724;28;20476;-76
2023/12/16 09:03:59;;;;;;;18.55;11.63;;;;;;;1.01;73.86;101367.25;5013173;28;20052;-78
2023/12/16 09:06:44;;;;;;;12.18;6.88;;;;;;;1.09;74.05;101378.78;5019263;28;20072;-78
2023/12/16 09:09:30;;;;;;;20.23;12.07;;;;;;;1.10;74.85;101390.13;5017787;28;20056;-78
2023/12/16 09:12:18;;;;;;;20.15;12.63;;;;;;;1.15;74.32;101393.19;5028452;28;20440;-75
2023/12/16 09:15:04;;;;;;;14.52;7.38;;;;;;;1.13;72.93;101384.66;5018148;28;20491;-76
2023/12/16 09:17:49;;;;;;;16.20;7.40;;;;;;;1.11;73.77;101384.75;5020358;28;20383;-75
2023/12/16 09:20:35;;;;;;;11.82;6.13;;;;;;;1.18;73.13;101386.91;5036652;28;20487;-76
2023/12/16 09:23:21;;;;;;;10.60;7.15;;;;;;;1.05;72.33;101369.50;5037379;28;20052;-76
2023/12/16 09:26:06;;;;;;;8.07;5.40;;;;;;;1.07;72.51;101379.88;5013922;28;20524;-77
2023/12/16 09:28:52;;;;;;;20.10;9.43;;;;;;;1.15;73.24;101380.94;5025462;28;20048;-77
2023/12/16 09:31:41;;;;;;;22.45;12.38;;;;;;;1.30;73.19;101391.22;5023184;28;20060;-79
2023/12/16 09:34:26;;;;;;;15.85;9.32;;;;;;;1.36;71.63;101407.31;5031855;28;20055;-76
2023/12/16 09:37:12;;;;;;;31.35;13.13;;;;;;;1.22;71.58;101396.19;5032478;28;20503;-77
2023/12/16 09:39:57;;;;;;;7.68;5.45;;;;;;;1.15;70.71;101387.97;5019009;28;20061;-76
2023/12/16 09:42:44;;;;;;;21.45;10.07;;;;;;;1.26;71.40;101397.66;5027540;28;20072;-77
2023/12/16 09:45:30;;;;;;;26.17;9.52;;;;;;;1.29;71.86;101394.81;5018212;28;20059;-76
2023/12/16 09:48:19;;;;;;;28.88;14.18;;;;;;;1.35;71.82;101396.94;5025439;28;20080;-77
2023/12/16 09:51:05;;;;;;;32.40;13.57;;;;;;;1.31;72.35;101398.94;5017557;28;20051;-77
2023/12/16 09:53:50;;;;;;;19.15;9.80;;;;;;;1.35;71.85;101405.66;5034800;28;20483;-77
2023/12/16 09:56:38;;;;;;;29.63;15.45;;;;;;;1.40;72.38;101413.13;5035515;28;20047;-75
2023/12/16 09:59:31;;;;;;;21.17;10.45;;;;;;;1.28;70.52;101399.19;5025530;28;20071;-76
2023/12/16 10:02:36;;;;;;;17.35;7.55;;;;;;;1.36;69.73;101412.53;5029697;28;20111;-76
2023/12/16 10:05:26;;;;;;;13.05;7.03;;;;;;;1.36;70.73;101406.47;5030984;28;20063;-75
2023/12/16 10:08:12;;;;;;;15.57;8.88;;;;;;;1.43;71.00;101401.59;5032623;28;20052;-77
2023/12/16 10:11:00;;;;;;;7.75;5.43;;;;;;;1.45;70.97;101402.31;5023850;28;20395;-76
2023/12/16 10:14:03;;;;;;;13.32;7.50;;;;;;;1.42;69.77;101411.25;5029367;28;20056;-77
2023/12/16 10:16:50;;;;;;;7.75;5.57;;;;;;;1.33;69.39;101380.50;5025750;28;20052;-77
2023/12/16 10:19:36;;;;;;;22.67;9.60;;;;;;;1.44;70.12;101384.91;5018687;28;20131;-78
2023/12/16 10:22:22;;;;;;;10.68;6.50;;;;;;;1.55;69.88;101404.09;5018394;28;20060;-75
2023/12/16 10:25:08;;;;;;;12.57;7.70;;;;;;;1.55;69.42;101392.78;5011961;28;20064;-77
2023/12/16 10:27:59;;;;;;;18.90;9.52;;;;;;;1.55;70.13;101393.63;5017749;28;20052;-77
2023/12/16 10:30:45;;;;;;;11.60;7.07;;;;;;;1.57;69.61;101391.72;5022571;28;20135;-78
2023/12/16 10:33:30;;;;;;;13.52;8.00;;;;;;;1.62;68.67;101399.22;5032404;28;20108;-77
2023/12/16 10:36:15;;;;;;;18.30;7.72;;;;;;;1.64;68.76;101383.41;5022585;28;20056;-78
2023/12/16 10:39:02;;;;;;;7.57;5.28;;;;;;;1.65;67.67;101380.63;5020954;28;20061;-77
2023/12/16 10:41:46;;;;;;;8.77;5.30;;;;;;;1.72;69.08;101387.06;5029329;28;20514;-77
2023/12/16 10:44:32;;;;;;;6.22;4.80;;;;;;;1.73;68.10;101380.88;5023379;28;20396;-79
2023/12/16 10:47:18;;;;;;;19.85;11.07;;;;;;;1.73;69.34;101386.13;5028506;28;20159;-78
2023/12/16 10:50:04;;;;;;;19.50;11.30;;;;;;;1.69;68.39;101370.75;5036534;28;20068;-76
2023/12/16 10:52:55;;;;;;;16.13;8.93;;;;;;;1.82;68.64;101384.59;5028951;28;20056;-76
2023/12/16 10:55:44;;;;;;;24.33;10.98;;;;;;;1.89;68.13;101379.69;5018318;28;20479;-76
2023/12/16 10:58:35;;;;;;;9.55;5.88;;;;;;;1.91;67.32;101386.47;5030129;28;20052;-75
2023/12/16 11:01:22;;;;;;;32.35;15.57;;;;;;;1.98;68.05;101386.84;5027372;28;20071;-76
2023/12/16 11:04:14;;;;;;;50.70;17.40;;;;;;;2.07;68.05;101400.06;5025870;28;20067;-77
2023/12/16 11:07:05;;;;;;;16.55;5.38;;;;;;;2.12;67.13;101398.84;5038500;28;20052;-76
2023/12/16 11:09:51;;;;;;;15.75;9.10;;;;;;;2.21;66.84;101387.63;5017577;28;20072;-78
2023/12/16 11:12:37;;;;;;;15.43;9.20;;;;;;;2.18;66.51;101388.69;5021026;28;20463;-79
2023/12/16 11:15:23;;;;;;;14.30;6.88;;;;;;;1.99;65.60;101378.00;5036166;28;20060;-79
2023/12/16 11:18:20;;;;;;;14.93;8.63;;;;;;;2.12;67.00;101388.34;5030716;28;20098;-80
2023/12/16 11:21:09;;;;;;;10.75;5.72;;;;;;;2.02;65.37;101390.88;5026816;28;20049;-77
2023/12/16 11:23:54;;;;;;;22.17;10.98;;;;;;;2.00;66.00;101392.78;5026455;28;20427;-79
2023/12/16 11:26:40;;;;;;;14.07;6.80;;;;;;;2.04;66.19;101395.06;5023512;28;20071;-78
2023/12/16 11:29:25;;;;;;;57.17;23.35;;;;;;;1.98;66.38;101373.72;5023909;28;20420;-77
2023/12/16 11:32:11;;;;;;;20.23;11.18;;;;;;;2.28;67.73;101387.00;5034191;28;20071;-77
2023/12/16 11:34:57;;;;;;;9.98;5.65;;;;;;;2.13;64.91;101382.16;5020855;28;20048;-77
2023/12/16 11:37:43;;;;;;;14.27;7.22;;;;;;;2.22;66.16;101392.72;5033751;28;20052;-78
2023/12/16 11:40:43;;;;;;;11.18;6.07;;;;;;;2.11;66.13;101387.53;5040659;28;20408;-78
2023/12/16 11:43:53;;;;;;;5.30;4.05;;;;;;;2.07;65.02;101392.19;5033707;28;20427;-77
2023/12/16 11:46:40;;;;;;;17.27;9.25;;;;;;;2.16;66.59;101395.84;5021785;28;20456;-77
2023/12/16 11:49:26;;;;;;;79.10;22.92;;;;;;;2.26;66.55;101393.34;5034000;28;20048;-76
2023/12/16 11:52:11;;;;;;;25.70;10.20;;;;;;;2.26;66.29;101402.06;5033409;28;20507;-78
2023/12/16 11:54:57;;;;;;;18.92;9.65;;;;;;;2.28;65.34;101392.25;5037827;28;20048;-76
2023/12/16 11:57:47;;;;;;;38.70;13.38;;;;;;;2.29;65.31;101386.06;5032242;28;20048;-79
2023/12/16 12:00:33;;;;;;;12.93;7.75;;;;;;;2.09;64.98;101363.19;5032136;28;20068;-76
2023/12/16 12:03:21;;;;;;;14.93;8.63;;;;;;;2.32;65.74;101392.88;5036489;28;20060;-76
2023/12/16 12:06:06;;;;;;;25.60;13.13;;;;;;;2.34;65.48;101390.94;5038758;28;20056;-76
2023/12/16 12:08:53;;;;;;;18.38;8.82;;;;;;;2.29;66.16;101383.44;5023676;28;20064;-77
2023/12/16 12:11:38;;;;;;;9.52;4.97;;;;;;;2.31;64.78;101389.38;5029331;28;20495;-78
2023/12/16 12:14:27;;;;;;;24.42;9.02;;;;;;;2.37;65.21;101395.09;5025828;28;20052;-76
2023/12/16 12:17:14;;;;;;;8.02;4.45;;;;;;;2.31;65.12;101396.41;5020905;28;20052;-75
2023/12/16 12:19:59;;;;;;;15.60;9.25;;;;;;;2.33;66.76;101396.31;5018239;28;20411;-76
2023/12/16 12:22:45;;;;;;;20.88;10.57;;;;;;;2.34;66.36;101400.59;5023170;28;20060;-77
2023/12/16 12:25:30;;;;;;;22.17;11.18;;;;;;;2.44;66.92;101396.28;5033292;28;20060;-78
2023/12/16 12:28:17;;;;;;;22.90;11.43;;;;;;;2.48;66.61;101392.47;5028572;28;20096;-78
2023/12/16 12:31:04;;;;;;;17.80;8.60;;;;;;;2.43;65.65;101384.13;5026333;28;20061;-76
2023/12/16 12:33:51;;;;;;;21.40;10.48;;;;;;;2.49;64.90;101394.13;5039068;28;20056;-78
2023/12/16 12:36:36;;;;;;;21.83;10.90;;;;;;;2.53;65.10;101398.16;5027060;28;20056;-77
2023/12/16 12:39:22;;;;;;;15.85;7.40;;;;;;;2.57;64.57;101402.22;5030478;28;20068;-76
2023/12/16 12:42:08;;;;;;;20.45;10.20;;;;;;;2.56;65.44;101395.28;5023318;28;20068;-76
2023/12/16 12:44:53;;;;;;;18.25;9.35;;;;;;;2.53;65.46;101401.59;5031657;28;20108;-77
2023/12/16 12:47:40;;;;;;;20.80;10.07;;;;;;;2.60;65.98;101409.84;5036924;28;20056;-76
2023/12/16 12:50:25;;;;;;;20.50;9.30;;;;;;;2.49;64.15;101404.63;5032270;28;20071;-76
2023/12/16 12:53:18;;;;;;;28.63;14.82;;;;;;;2.62;66.07;101415.78;5033128;28;20056;-76
2023/12/16 12:56:04;;;;;;;17.73;9.45;;;;;;;2.63;64.48;101411.38;5029283;28;20365;-77